<?xml version="1.0" encoding="UTF-8" standalone="no" ?>
<gpx xmlns="http://www.topografix.com/GPX/1/1" xmlns:xsi="http://www.w3.org/2001/XMLSchema-instance" xsi:schemaLocation="http://www.topografix.com/GPX/1/1 http://www.topografix.com/GPX/1/1/gpx.xsd" version="1.1" creator="VisuGPX - https://www.visugpx.com">
  <metadata>
    <name>circuit_des_deux_chateaux_g3-15519575-1669651041-348</name>
  </metadata>
  <trk>
    <name><![CDATA[15519575-circuit_des_deux_chateaux_g3]]></name>
    <extensions>
      <line xmlns="http://www.topografix.com/GPX/gpx_style/0/2">
        <color>0000FF</color>
        <width>4</width>
      </line>
    </extensions>
    <trkseg>
      <trkpt lat="45.48554" lon="5.47271">
        <ele>394</ele>
        <time>2022-11-28T15:57:21Z</time>
      </trkpt>
      <trkpt lat="45.48415" lon="5.47478">
        <ele>413</ele>
        <time>2022-11-28T16:01:49Z</time>
      </trkpt>
      <trkpt lat="45.48255" lon="5.47581">
        <ele>426</ele>
        <time>2022-11-28T16:05:43Z</time>
      </trkpt>
      <trkpt lat="45.48187" lon="5.47633">
        <ele>438</ele>
        <time>2022-11-28T16:07:26Z</time>
      </trkpt>
      <trkpt lat="45.4811" lon="5.47583">
        <ele>450</ele>
        <time>2022-11-28T16:09:19Z</time>
      </trkpt>
      <trkpt lat="45.48032" lon="5.47473">
        <ele>442</ele>
        <time>2022-11-28T16:11:46Z</time>
      </trkpt>
      <trkpt lat="45.4802" lon="5.47395">
        <ele>435</ele>
        <time>2022-11-28T16:13:00Z</time>
      </trkpt>
      <trkpt lat="45.48045" lon="5.47059">
        <ele>412</ele>
        <time>2022-11-28T16:18:17Z</time>
      </trkpt>
      <trkpt lat="45.48032" lon="5.46983">
        <ele>407</ele>
        <time>2022-11-28T16:19:30Z</time>
      </trkpt>
      <trkpt lat="45.47957" lon="5.46938">
        <ele>405</ele>
        <time>2022-11-28T16:21:18Z</time>
      </trkpt>
      <trkpt lat="45.4781" lon="5.46924">
        <ele>405</ele>
        <time>2022-11-28T16:24:35Z</time>
      </trkpt>
      <trkpt lat="45.47548" lon="5.46668">
        <ele>424</ele>
        <time>2022-11-28T16:31:39Z</time>
      </trkpt>
      <trkpt lat="45.47537" lon="5.46664">
        <ele>426</ele>
        <time>2022-11-28T16:31:54Z</time>
      </trkpt>
      <trkpt lat="45.47531" lon="5.46655">
        <ele>425</ele>
        <time>2022-11-28T16:32:06Z</time>
      </trkpt>
      <trkpt lat="45.47508" lon="5.46639">
        <ele>426</ele>
        <time>2022-11-28T16:32:40Z</time>
      </trkpt>
      <trkpt lat="45.47503" lon="5.46633">
        <ele>426</ele>
        <time>2022-11-28T16:32:48Z</time>
      </trkpt>
      <trkpt lat="45.47498" lon="5.4662">
        <ele>424</ele>
        <time>2022-11-28T16:33:02Z</time>
      </trkpt>
      <trkpt lat="45.47457" lon="5.46581">
        <ele>422</ele>
        <time>2022-11-28T16:34:08Z</time>
      </trkpt>
      <trkpt lat="45.47423" lon="5.46543">
        <ele>422</ele>
        <time>2022-11-28T16:35:06Z</time>
      </trkpt>
      <trkpt lat="45.47397" lon="5.46504">
        <ele>420</ele>
        <time>2022-11-28T16:35:56Z</time>
      </trkpt>
      <trkpt lat="45.47379" lon="5.46485">
        <ele>421</ele>
        <time>2022-11-28T16:36:26Z</time>
      </trkpt>
      <trkpt lat="45.47377" lon="5.46476">
        <ele>421</ele>
        <time>2022-11-28T16:36:35Z</time>
      </trkpt>
      <trkpt lat="45.47354" lon="5.46449">
        <ele>421</ele>
        <time>2022-11-28T16:37:14Z</time>
      </trkpt>
      <trkpt lat="45.47317" lon="5.46418">
        <ele>422</ele>
        <time>2022-11-28T16:38:12Z</time>
      </trkpt>
      <trkpt lat="45.47306" lon="5.46413">
        <ele>423</ele>
        <time>2022-11-28T16:38:27Z</time>
      </trkpt>
      <trkpt lat="45.47275" lon="5.46414">
        <ele>427</ele>
        <time>2022-11-28T16:39:09Z</time>
      </trkpt>
      <trkpt lat="45.47252" lon="5.46376">
        <ele>427</ele>
        <time>2022-11-28T16:39:56Z</time>
      </trkpt>
      <trkpt lat="45.47243" lon="5.46371">
        <ele>428</ele>
        <time>2022-11-28T16:40:08Z</time>
      </trkpt>
      <trkpt lat="45.47228" lon="5.46357">
        <ele>430</ele>
        <time>2022-11-28T16:40:32Z</time>
      </trkpt>
      <trkpt lat="45.47221" lon="5.46355">
        <ele>431</ele>
        <time>2022-11-28T16:40:42Z</time>
      </trkpt>
      <trkpt lat="45.47212" lon="5.46342">
        <ele>431</ele>
        <time>2022-11-28T16:40:59Z</time>
      </trkpt>
      <trkpt lat="45.47203" lon="5.46337">
        <ele>432</ele>
        <time>2022-11-28T16:41:12Z</time>
      </trkpt>
      <trkpt lat="45.47179" lon="5.46315">
        <ele>433</ele>
        <time>2022-11-28T16:41:50Z</time>
      </trkpt>
      <trkpt lat="45.47168" lon="5.463">
        <ele>433</ele>
        <time>2022-11-28T16:42:10Z</time>
      </trkpt>
      <trkpt lat="45.4716" lon="5.46295">
        <ele>433</ele>
        <time>2022-11-28T16:42:22Z</time>
      </trkpt>
      <trkpt lat="45.47149" lon="5.46292">
        <ele>435</ele>
        <time>2022-11-28T16:42:37Z</time>
      </trkpt>
      <trkpt lat="45.47123" lon="5.463">
        <ele>440</ele>
        <time>2022-11-28T16:43:12Z</time>
      </trkpt>
      <trkpt lat="45.47104" lon="5.46314">
        <ele>445</ele>
        <time>2022-11-28T16:43:41Z</time>
      </trkpt>
      <trkpt lat="45.47093" lon="5.46319">
        <ele>448</ele>
        <time>2022-11-28T16:43:56Z</time>
      </trkpt>
      <trkpt lat="45.4708" lon="5.46314">
        <ele>449</ele>
        <time>2022-11-28T16:44:14Z</time>
      </trkpt>
      <trkpt lat="45.47067" lon="5.46304">
        <ele>450</ele>
        <time>2022-11-28T16:44:34Z</time>
      </trkpt>
      <trkpt lat="45.4706" lon="5.46302">
        <ele>451</ele>
        <time>2022-11-28T16:44:43Z</time>
      </trkpt>
      <trkpt lat="45.47052" lon="5.46303">
        <ele>452</ele>
        <time>2022-11-28T16:44:54Z</time>
      </trkpt>
      <trkpt lat="45.47032" lon="5.46288">
        <ele>454</ele>
        <time>2022-11-28T16:45:24Z</time>
      </trkpt>
      <trkpt lat="45.47016" lon="5.46266">
        <ele>454</ele>
        <time>2022-11-28T16:45:54Z</time>
      </trkpt>
      <trkpt lat="45.47014" lon="5.46269">
        <ele>454</ele>
        <time>2022-11-28T16:45:58Z</time>
      </trkpt>
      <trkpt lat="45.47009" lon="5.46269">
        <ele>455</ele>
        <time>2022-11-28T16:46:05Z</time>
      </trkpt>
      <trkpt lat="45.46995" lon="5.46259">
        <ele>456</ele>
        <time>2022-11-28T16:46:25Z</time>
      </trkpt>
      <trkpt lat="45.46986" lon="5.46259">
        <ele>456</ele>
        <time>2022-11-28T16:46:37Z</time>
      </trkpt>
      <trkpt lat="45.46978" lon="5.4625">
        <ele>456</ele>
        <time>2022-11-28T16:46:51Z</time>
      </trkpt>
      <trkpt lat="45.46979" lon="5.46243">
        <ele>456</ele>
        <time>2022-11-28T16:46:58Z</time>
      </trkpt>
      <trkpt lat="45.46975" lon="5.46243">
        <ele>457</ele>
        <time>2022-11-28T16:47:03Z</time>
      </trkpt>
      <trkpt lat="45.4697" lon="5.46236">
        <ele>457</ele>
        <time>2022-11-28T16:47:12Z</time>
      </trkpt>
      <trkpt lat="45.46927" lon="5.46239">
        <ele>459</ele>
        <time>2022-11-28T16:48:10Z</time>
      </trkpt>
      <trkpt lat="45.46917" lon="5.46233">
        <ele>460</ele>
        <time>2022-11-28T16:48:24Z</time>
      </trkpt>
      <trkpt lat="45.46914" lon="5.46228">
        <ele>460</ele>
        <time>2022-11-28T16:48:31Z</time>
      </trkpt>
      <trkpt lat="45.46889" lon="5.46207">
        <ele>460</ele>
        <time>2022-11-28T16:49:09Z</time>
      </trkpt>
      <trkpt lat="45.4687" lon="5.46202">
        <ele>460</ele>
        <time>2022-11-28T16:49:35Z</time>
      </trkpt>
      <trkpt lat="45.46867" lon="5.46197">
        <ele>460</ele>
        <time>2022-11-28T16:49:41Z</time>
      </trkpt>
      <trkpt lat="45.46826" lon="5.46192">
        <ele>459</ele>
        <time>2022-11-28T16:50:36Z</time>
      </trkpt>
      <trkpt lat="45.46802" lon="5.46205">
        <ele>460</ele>
        <time>2022-11-28T16:51:10Z</time>
      </trkpt>
      <trkpt lat="45.46771" lon="5.46205">
        <ele>461</ele>
        <time>2022-11-28T16:51:52Z</time>
      </trkpt>
      <trkpt lat="45.46758" lon="5.46198">
        <ele>461</ele>
        <time>2022-11-28T16:52:10Z</time>
      </trkpt>
      <trkpt lat="45.46701" lon="5.46177">
        <ele>462</ele>
        <time>2022-11-28T16:53:29Z</time>
      </trkpt>
      <trkpt lat="45.46607" lon="5.46131">
        <ele>461</ele>
        <time>2022-11-28T16:55:41Z</time>
      </trkpt>
      <trkpt lat="45.46601" lon="5.46132">
        <ele>461</ele>
        <time>2022-11-28T16:55:50Z</time>
      </trkpt>
      <trkpt lat="45.4657" lon="5.4612">
        <ele>461</ele>
        <time>2022-11-28T16:56:32Z</time>
      </trkpt>
      <trkpt lat="45.46531" lon="5.46115">
        <ele>462</ele>
        <time>2022-11-28T16:57:25Z</time>
      </trkpt>
      <trkpt lat="45.46491" lon="5.46114">
        <ele>464</ele>
        <time>2022-11-28T16:58:18Z</time>
      </trkpt>
      <trkpt lat="45.46457" lon="5.46117">
        <ele>467</ele>
        <time>2022-11-28T16:59:03Z</time>
      </trkpt>
      <trkpt lat="45.46452" lon="5.46113">
        <ele>466</ele>
        <time>2022-11-28T16:59:11Z</time>
      </trkpt>
      <trkpt lat="45.46453" lon="5.46111">
        <ele>466</ele>
        <time>2022-11-28T16:59:13Z</time>
      </trkpt>
      <trkpt lat="45.46449" lon="5.46113">
        <ele>466</ele>
        <time>2022-11-28T16:59:19Z</time>
      </trkpt>
      <trkpt lat="45.46451" lon="5.46107">
        <ele>465</ele>
        <time>2022-11-28T16:59:25Z</time>
      </trkpt>
      <trkpt lat="45.46394" lon="5.46084">
        <ele>464</ele>
        <time>2022-11-28T17:00:44Z</time>
      </trkpt>
      <trkpt lat="45.46381" lon="5.46074">
        <ele>464</ele>
        <time>2022-11-28T17:01:04Z</time>
      </trkpt>
      <trkpt lat="45.46373" lon="5.46064">
        <ele>464</ele>
        <time>2022-11-28T17:01:18Z</time>
      </trkpt>
      <trkpt lat="45.46363" lon="5.46002">
        <ele>459</ele>
        <time>2022-11-28T17:02:18Z</time>
      </trkpt>
      <trkpt lat="45.46344" lon="5.45971">
        <ele>459</ele>
        <time>2022-11-28T17:02:56Z</time>
      </trkpt>
      <trkpt lat="45.46336" lon="5.45963">
        <ele>460</ele>
        <time>2022-11-28T17:03:09Z</time>
      </trkpt>
      <trkpt lat="45.46302" lon="5.45939">
        <ele>463</ele>
        <time>2022-11-28T17:04:00Z</time>
      </trkpt>
      <trkpt lat="45.46259" lon="5.45896">
        <ele>463</ele>
        <time>2022-11-28T17:05:10Z</time>
      </trkpt>
      <trkpt lat="45.46192" lon="5.45843">
        <ele>464</ele>
        <time>2022-11-28T17:06:52Z</time>
      </trkpt>
      <trkpt lat="45.46177" lon="5.45836">
        <ele>464</ele>
        <time>2022-11-28T17:07:13Z</time>
      </trkpt>
      <trkpt lat="45.4615" lon="5.45836">
        <ele>467</ele>
        <time>2022-11-28T17:07:49Z</time>
      </trkpt>
      <trkpt lat="45.46141" lon="5.45828">
        <ele>468</ele>
        <time>2022-11-28T17:08:04Z</time>
      </trkpt>
      <trkpt lat="45.46131" lon="5.45813">
        <ele>469</ele>
        <time>2022-11-28T17:08:23Z</time>
      </trkpt>
      <trkpt lat="45.46107" lon="5.45789">
        <ele>470</ele>
        <time>2022-11-28T17:09:02Z</time>
      </trkpt>
      <trkpt lat="45.4607" lon="5.45764">
        <ele>470</ele>
        <time>2022-11-28T17:09:57Z</time>
      </trkpt>
      <trkpt lat="45.46057" lon="5.45758">
        <ele>469</ele>
        <time>2022-11-28T17:10:15Z</time>
      </trkpt>
      <trkpt lat="45.46053" lon="5.4576">
        <ele>470</ele>
        <time>2022-11-28T17:10:21Z</time>
      </trkpt>
      <trkpt lat="45.4604" lon="5.45759">
        <ele>469</ele>
        <time>2022-11-28T17:10:38Z</time>
      </trkpt>
      <trkpt lat="45.46033" lon="5.45755">
        <ele>469</ele>
        <time>2022-11-28T17:10:48Z</time>
      </trkpt>
      <trkpt lat="45.46039" lon="5.45759">
        <ele>469</ele>
        <time>2022-11-28T17:10:57Z</time>
      </trkpt>
      <trkpt lat="45.46033" lon="5.45755">
        <ele>469</ele>
        <time>2022-11-28T17:11:06Z</time>
      </trkpt>
      <trkpt lat="45.46015" lon="5.45766">
        <ele>470</ele>
        <time>2022-11-28T17:11:32Z</time>
      </trkpt>
      <trkpt lat="45.46005" lon="5.45768">
        <ele>471</ele>
        <time>2022-11-28T17:11:45Z</time>
      </trkpt>
      <trkpt lat="45.46004" lon="5.45771">
        <ele>471</ele>
        <time>2022-11-28T17:11:48Z</time>
      </trkpt>
      <trkpt lat="45.46003" lon="5.45768">
        <ele>471</ele>
        <time>2022-11-28T17:11:52Z</time>
      </trkpt>
      <trkpt lat="45.45991" lon="5.45771">
        <ele>472</ele>
        <time>2022-11-28T17:12:08Z</time>
      </trkpt>
      <trkpt lat="45.4598" lon="5.45782">
        <ele>474</ele>
        <time>2022-11-28T17:12:26Z</time>
      </trkpt>
      <trkpt lat="45.45971" lon="5.45783">
        <ele>475</ele>
        <time>2022-11-28T17:12:38Z</time>
      </trkpt>
      <trkpt lat="45.45963" lon="5.45788">
        <ele>476</ele>
        <time>2022-11-28T17:12:49Z</time>
      </trkpt>
      <trkpt lat="45.45959" lon="5.45793">
        <ele>476</ele>
        <time>2022-11-28T17:12:57Z</time>
      </trkpt>
      <trkpt lat="45.4596" lon="5.45795">
        <ele>476</ele>
        <time>2022-11-28T17:12:59Z</time>
      </trkpt>
      <trkpt lat="45.45946" lon="5.45787">
        <ele>476</ele>
        <time>2022-11-28T17:13:19Z</time>
      </trkpt>
      <trkpt lat="45.45916" lon="5.45785">
        <ele>476</ele>
        <time>2022-11-28T17:13:59Z</time>
      </trkpt>
      <trkpt lat="45.45909" lon="5.4578">
        <ele>478</ele>
        <time>2022-11-28T17:14:09Z</time>
      </trkpt>
      <trkpt lat="45.45909" lon="5.45756">
        <ele>477</ele>
        <time>2022-11-28T17:14:32Z</time>
      </trkpt>
      <trkpt lat="45.45912" lon="5.45742">
        <ele>476</ele>
        <time>2022-11-28T17:14:46Z</time>
      </trkpt>
      <trkpt lat="45.45923" lon="5.45705">
        <ele>473</ele>
        <time>2022-11-28T17:15:23Z</time>
      </trkpt>
      <trkpt lat="45.45923" lon="5.45697">
        <ele>473</ele>
        <time>2022-11-28T17:15:31Z</time>
      </trkpt>
      <trkpt lat="45.45936" lon="5.45662">
        <ele>468</ele>
        <time>2022-11-28T17:16:08Z</time>
      </trkpt>
      <trkpt lat="45.4594" lon="5.45638">
        <ele>465</ele>
        <time>2022-11-28T17:16:31Z</time>
      </trkpt>
      <trkpt lat="45.45947" lon="5.45634">
        <ele>463</ele>
        <time>2022-11-28T17:16:41Z</time>
      </trkpt>
      <trkpt lat="45.45949" lon="5.45635">
        <ele>463</ele>
        <time>2022-11-28T17:16:44Z</time>
      </trkpt>
      <trkpt lat="45.45941" lon="5.45619">
        <ele>463</ele>
        <time>2022-11-28T17:17:02Z</time>
      </trkpt>
      <trkpt lat="45.45943" lon="5.45618">
        <ele>463</ele>
        <time>2022-11-28T17:17:05Z</time>
      </trkpt>
      <trkpt lat="45.45944" lon="5.45609">
        <ele>462</ele>
        <time>2022-11-28T17:17:14Z</time>
      </trkpt>
      <trkpt lat="45.45945" lon="5.45582">
        <ele>459</ele>
        <time>2022-11-28T17:17:39Z</time>
      </trkpt>
      <trkpt lat="45.45942" lon="5.45586">
        <ele>460</ele>
        <time>2022-11-28T17:17:44Z</time>
      </trkpt>
      <trkpt lat="45.45945" lon="5.45594">
        <ele>460</ele>
        <time>2022-11-28T17:17:53Z</time>
      </trkpt>
      <trkpt lat="45.45943" lon="5.45624">
        <ele>463</ele>
        <time>2022-11-28T17:18:21Z</time>
      </trkpt>
      <trkpt lat="45.45923" lon="5.45669">
        <ele>472</ele>
        <time>2022-11-28T17:19:11Z</time>
      </trkpt>
      <trkpt lat="45.45927" lon="5.45666">
        <ele>471</ele>
        <time>2022-11-28T17:19:17Z</time>
      </trkpt>
      <trkpt lat="45.45926" lon="5.45678">
        <ele>471</ele>
        <time>2022-11-28T17:19:28Z</time>
      </trkpt>
      <trkpt lat="45.4592" lon="5.45692">
        <ele>473</ele>
        <time>2022-11-28T17:19:44Z</time>
      </trkpt>
      <trkpt lat="45.45912" lon="5.45723">
        <ele>475</ele>
        <time>2022-11-28T17:20:15Z</time>
      </trkpt>
      <trkpt lat="45.45907" lon="5.45732">
        <ele>477</ele>
        <time>2022-11-28T17:20:25Z</time>
      </trkpt>
      <trkpt lat="45.45907" lon="5.45751">
        <ele>478</ele>
        <time>2022-11-28T17:20:43Z</time>
      </trkpt>
      <trkpt lat="45.45902" lon="5.45782">
        <ele>480</ele>
        <time>2022-11-28T17:21:13Z</time>
      </trkpt>
      <trkpt lat="45.45897" lon="5.45781">
        <ele>482</ele>
        <time>2022-11-28T17:21:20Z</time>
      </trkpt>
      <trkpt lat="45.45887" lon="5.45754">
        <ele>483</ele>
        <time>2022-11-28T17:21:48Z</time>
      </trkpt>
      <trkpt lat="45.45889" lon="5.45735">
        <ele>481</ele>
        <time>2022-11-28T17:22:06Z</time>
      </trkpt>
      <trkpt lat="45.45887" lon="5.45698">
        <ele>479</ele>
        <time>2022-11-28T17:22:41Z</time>
      </trkpt>
      <trkpt lat="45.45881" lon="5.45669">
        <ele>477</ele>
        <time>2022-11-28T17:23:09Z</time>
      </trkpt>
      <trkpt lat="45.4587" lon="5.45646">
        <ele>476</ele>
        <time>2022-11-28T17:23:35Z</time>
      </trkpt>
      <trkpt lat="45.4587" lon="5.45651">
        <ele>477</ele>
        <time>2022-11-28T17:23:40Z</time>
      </trkpt>
      <trkpt lat="45.45878" lon="5.45671">
        <ele>478</ele>
        <time>2022-11-28T17:24:01Z</time>
      </trkpt>
      <trkpt lat="45.4587" lon="5.45684">
        <ele>480</ele>
        <time>2022-11-28T17:24:18Z</time>
      </trkpt>
      <trkpt lat="45.45869" lon="5.4569">
        <ele>481</ele>
        <time>2022-11-28T17:24:23Z</time>
      </trkpt>
      <trkpt lat="45.45869" lon="5.45684">
        <ele>480</ele>
        <time>2022-11-28T17:24:29Z</time>
      </trkpt>
      <trkpt lat="45.4587" lon="5.45686">
        <ele>480</ele>
        <time>2022-11-28T17:24:31Z</time>
      </trkpt>
      <trkpt lat="45.45875" lon="5.45674">
        <ele>478</ele>
        <time>2022-11-28T17:24:44Z</time>
      </trkpt>
      <trkpt lat="45.45877" lon="5.45658">
        <ele>477</ele>
        <time>2022-11-28T17:25:00Z</time>
      </trkpt>
      <trkpt lat="45.45867" lon="5.45642">
        <ele>476</ele>
        <time>2022-11-28T17:25:20Z</time>
      </trkpt>
      <trkpt lat="45.45867" lon="5.45636">
        <ele>476</ele>
        <time>2022-11-28T17:25:25Z</time>
      </trkpt>
      <trkpt lat="45.45848" lon="5.45604">
        <ele>476</ele>
        <time>2022-11-28T17:26:05Z</time>
      </trkpt>
      <trkpt lat="45.45848" lon="5.45608">
        <ele>476</ele>
        <time>2022-11-28T17:26:08Z</time>
      </trkpt>
      <trkpt lat="45.4584" lon="5.45597">
        <ele>476</ele>
        <time>2022-11-28T17:26:23Z</time>
      </trkpt>
      <trkpt lat="45.45849" lon="5.45608">
        <ele>476</ele>
        <time>2022-11-28T17:26:39Z</time>
      </trkpt>
      <trkpt lat="45.4585" lon="5.45616">
        <ele>476</ele>
        <time>2022-11-28T17:26:47Z</time>
      </trkpt>
      <trkpt lat="45.45851" lon="5.45614">
        <ele>476</ele>
        <time>2022-11-28T17:26:49Z</time>
      </trkpt>
      <trkpt lat="45.45879" lon="5.45677">
        <ele>478</ele>
        <time>2022-11-28T17:27:59Z</time>
      </trkpt>
      <trkpt lat="45.4587" lon="5.45696">
        <ele>481</ele>
        <time>2022-11-28T17:28:20Z</time>
      </trkpt>
      <trkpt lat="45.45867" lon="5.45709">
        <ele>483</ele>
        <time>2022-11-28T17:28:33Z</time>
      </trkpt>
      <trkpt lat="45.45862" lon="5.45717">
        <ele>485</ele>
        <time>2022-11-28T17:28:43Z</time>
      </trkpt>
      <trkpt lat="45.45856" lon="5.45721">
        <ele>487</ele>
        <time>2022-11-28T17:28:52Z</time>
      </trkpt>
      <trkpt lat="45.45854" lon="5.45731">
        <ele>489</ele>
        <time>2022-11-28T17:29:02Z</time>
      </trkpt>
      <trkpt lat="45.45848" lon="5.45734">
        <ele>491</ele>
        <time>2022-11-28T17:29:10Z</time>
      </trkpt>
      <trkpt lat="45.45844" lon="5.45752">
        <ele>494</ele>
        <time>2022-11-28T17:29:28Z</time>
      </trkpt>
      <trkpt lat="45.45834" lon="5.45758">
        <ele>498</ele>
        <time>2022-11-28T17:29:42Z</time>
      </trkpt>
      <trkpt lat="45.45825" lon="5.45756">
        <ele>498</ele>
        <time>2022-11-28T17:29:54Z</time>
      </trkpt>
      <trkpt lat="45.45823" lon="5.45758">
        <ele>499</ele>
        <time>2022-11-28T17:29:58Z</time>
      </trkpt>
      <trkpt lat="45.45822" lon="5.4577">
        <ele>500</ele>
        <time>2022-11-28T17:30:09Z</time>
      </trkpt>
      <trkpt lat="45.45816" lon="5.45773">
        <ele>501</ele>
        <time>2022-11-28T17:30:17Z</time>
      </trkpt>
      <trkpt lat="45.45809" lon="5.45781">
        <ele>503</ele>
        <time>2022-11-28T17:30:29Z</time>
      </trkpt>
      <trkpt lat="45.4581" lon="5.45789">
        <ele>504</ele>
        <time>2022-11-28T17:30:37Z</time>
      </trkpt>
      <trkpt lat="45.45807" lon="5.45803">
        <ele>506</ele>
        <time>2022-11-28T17:30:51Z</time>
      </trkpt>
      <trkpt lat="45.458" lon="5.45806">
        <ele>507</ele>
        <time>2022-11-28T17:31:00Z</time>
      </trkpt>
      <trkpt lat="45.45789" lon="5.45805">
        <ele>508</ele>
        <time>2022-11-28T17:31:15Z</time>
      </trkpt>
      <trkpt lat="45.4579" lon="5.45803">
        <ele>508</ele>
        <time>2022-11-28T17:31:17Z</time>
      </trkpt>
      <trkpt lat="45.45792" lon="5.45806">
        <ele>508</ele>
        <time>2022-11-28T17:31:21Z</time>
      </trkpt>
      <trkpt lat="45.45789" lon="5.45802">
        <ele>508</ele>
        <time>2022-11-28T17:31:27Z</time>
      </trkpt>
      <trkpt lat="45.45779" lon="5.45805">
        <ele>509</ele>
        <time>2022-11-28T17:31:40Z</time>
      </trkpt>
      <trkpt lat="45.45755" lon="5.45854">
        <ele>521</ele>
        <time>2022-11-28T17:32:36Z</time>
      </trkpt>
      <trkpt lat="45.45723" lon="5.45935">
        <ele>537</ele>
        <time>2022-11-28T17:34:03Z</time>
      </trkpt>
      <trkpt lat="45.45693" lon="5.45945">
        <ele>542</ele>
        <time>2022-11-28T17:34:44Z</time>
      </trkpt>
      <trkpt lat="45.45689" lon="5.45973">
        <ele>545</ele>
        <time>2022-11-28T17:35:11Z</time>
      </trkpt>
      <trkpt lat="45.45681" lon="5.45989">
        <ele>548</ele>
        <time>2022-11-28T17:35:30Z</time>
      </trkpt>
      <trkpt lat="45.45684" lon="5.46042">
        <ele>556</ele>
        <time>2022-11-28T17:36:19Z</time>
      </trkpt>
      <trkpt lat="45.45705" lon="5.46069">
        <ele>557</ele>
        <time>2022-11-28T17:36:57Z</time>
      </trkpt>
      <trkpt lat="45.45713" lon="5.46097">
        <ele>561</ele>
        <time>2022-11-28T17:37:25Z</time>
      </trkpt>
      <trkpt lat="45.45721" lon="5.46102">
        <ele>561</ele>
        <time>2022-11-28T17:37:37Z</time>
      </trkpt>
      <trkpt lat="45.45725" lon="5.46122">
        <ele>565</ele>
        <time>2022-11-28T17:37:57Z</time>
      </trkpt>
      <trkpt lat="45.45729" lon="5.46118">
        <ele>563</ele>
        <time>2022-11-28T17:38:03Z</time>
      </trkpt>
      <trkpt lat="45.45731" lon="5.46153">
        <ele>570</ele>
        <time>2022-11-28T17:38:36Z</time>
      </trkpt>
      <trkpt lat="45.45738" lon="5.46166">
        <ele>571</ele>
        <time>2022-11-28T17:38:51Z</time>
      </trkpt>
      <trkpt lat="45.45736" lon="5.46168">
        <ele>572</ele>
        <time>2022-11-28T17:38:55Z</time>
      </trkpt>
      <trkpt lat="45.45738" lon="5.46195">
        <ele>576</ele>
        <time>2022-11-28T17:39:20Z</time>
      </trkpt>
      <trkpt lat="45.45733" lon="5.46205">
        <ele>580</ele>
        <time>2022-11-28T17:39:31Z</time>
      </trkpt>
      <trkpt lat="45.45736" lon="5.46216">
        <ele>581</ele>
        <time>2022-11-28T17:39:42Z</time>
      </trkpt>
      <trkpt lat="45.4573" lon="5.4623">
        <ele>585</ele>
        <time>2022-11-28T17:39:58Z</time>
      </trkpt>
      <trkpt lat="45.4573" lon="5.46235">
        <ele>586</ele>
        <time>2022-11-28T17:40:03Z</time>
      </trkpt>
      <trkpt lat="45.4572" lon="5.46252">
        <ele>593</ele>
        <time>2022-11-28T17:40:23Z</time>
      </trkpt>
      <trkpt lat="45.45727" lon="5.46282">
        <ele>595</ele>
        <time>2022-11-28T17:40:53Z</time>
      </trkpt>
      <trkpt lat="45.45723" lon="5.46309">
        <ele>600</ele>
        <time>2022-11-28T17:41:19Z</time>
      </trkpt>
      <trkpt lat="45.45726" lon="5.46316">
        <ele>600</ele>
        <time>2022-11-28T17:41:26Z</time>
      </trkpt>
      <trkpt lat="45.45727" lon="5.46329">
        <ele>601</ele>
        <time>2022-11-28T17:41:39Z</time>
      </trkpt>
      <trkpt lat="45.45719" lon="5.46381">
        <ele>607</ele>
        <time>2022-11-28T17:42:28Z</time>
      </trkpt>
      <trkpt lat="45.45717" lon="5.46382">
        <ele>608</ele>
        <time>2022-11-28T17:42:31Z</time>
      </trkpt>
      <trkpt lat="45.4572" lon="5.46379">
        <ele>607</ele>
        <time>2022-11-28T17:42:36Z</time>
      </trkpt>
      <trkpt lat="45.4572" lon="5.46373">
        <ele>606</ele>
        <time>2022-11-28T17:42:42Z</time>
      </trkpt>
      <trkpt lat="45.45721" lon="5.46384">
        <ele>607</ele>
        <time>2022-11-28T17:42:52Z</time>
      </trkpt>
      <trkpt lat="45.45712" lon="5.464">
        <ele>610</ele>
        <time>2022-11-28T17:43:11Z</time>
      </trkpt>
      <trkpt lat="45.45707" lon="5.46419">
        <ele>613</ele>
        <time>2022-11-28T17:43:30Z</time>
      </trkpt>
      <trkpt lat="45.45675" lon="5.4646">
        <ele>621</ele>
        <time>2022-11-28T17:44:28Z</time>
      </trkpt>
      <trkpt lat="45.45668" lon="5.46468">
        <ele>623</ele>
        <time>2022-11-28T17:44:40Z</time>
      </trkpt>
      <trkpt lat="45.45664" lon="5.46469">
        <ele>624</ele>
        <time>2022-11-28T17:44:45Z</time>
      </trkpt>
      <trkpt lat="45.45674" lon="5.46527">
        <ele>619</ele>
        <time>2022-11-28T17:45:41Z</time>
      </trkpt>
      <trkpt lat="45.45654" lon="5.46585">
        <ele>619</ele>
        <time>2022-11-28T17:46:42Z</time>
      </trkpt>
      <trkpt lat="45.45612" lon="5.46628">
        <ele>621</ele>
        <time>2022-11-28T17:47:51Z</time>
      </trkpt>
      <trkpt lat="45.4559" lon="5.46659">
        <ele>621</ele>
        <time>2022-11-28T17:48:32Z</time>
      </trkpt>
      <trkpt lat="45.45563" lon="5.4667">
        <ele>624</ele>
        <time>2022-11-28T17:49:09Z</time>
      </trkpt>
      <trkpt lat="45.45544" lon="5.4672">
        <ele>618</ele>
        <time>2022-11-28T17:50:03Z</time>
      </trkpt>
      <trkpt lat="45.45516" lon="5.46712">
        <ele>624</ele>
        <time>2022-11-28T17:50:41Z</time>
      </trkpt>
      <trkpt lat="45.45508" lon="5.46703">
        <ele>627</ele>
        <time>2022-11-28T17:50:54Z</time>
      </trkpt>
      <trkpt lat="45.45492" lon="5.46714">
        <ele>626</ele>
        <time>2022-11-28T17:51:18Z</time>
      </trkpt>
      <trkpt lat="45.45481" lon="5.46731">
        <ele>622</ele>
        <time>2022-11-28T17:51:40Z</time>
      </trkpt>
      <trkpt lat="45.45457" lon="5.4673">
        <ele>622</ele>
        <time>2022-11-28T17:52:12Z</time>
      </trkpt>
      <trkpt lat="45.4543" lon="5.4672">
        <ele>623</ele>
        <time>2022-11-28T17:52:49Z</time>
      </trkpt>
      <trkpt lat="45.45401" lon="5.46697">
        <ele>627</ele>
        <time>2022-11-28T17:53:33Z</time>
      </trkpt>
      <trkpt lat="45.45393" lon="5.46714">
        <ele>624</ele>
        <time>2022-11-28T17:53:52Z</time>
      </trkpt>
      <trkpt lat="45.45368" lon="5.46711">
        <ele>624</ele>
        <time>2022-11-28T17:54:26Z</time>
      </trkpt>
      <trkpt lat="45.45357" lon="5.46706">
        <ele>624</ele>
        <time>2022-11-28T17:54:41Z</time>
      </trkpt>
      <trkpt lat="45.45342" lon="5.46704">
        <ele>624</ele>
        <time>2022-11-28T17:55:01Z</time>
      </trkpt>
      <trkpt lat="45.45332" lon="5.46698">
        <ele>625</ele>
        <time>2022-11-28T17:55:16Z</time>
      </trkpt>
      <trkpt lat="45.453" lon="5.46687">
        <ele>626</ele>
        <time>2022-11-28T17:56:00Z</time>
      </trkpt>
      <trkpt lat="45.45299" lon="5.46683">
        <ele>626</ele>
        <time>2022-11-28T17:56:04Z</time>
      </trkpt>
      <trkpt lat="45.45292" lon="5.46684">
        <ele>626</ele>
        <time>2022-11-28T17:56:13Z</time>
      </trkpt>
      <trkpt lat="45.4526" lon="5.46667">
        <ele>625</ele>
        <time>2022-11-28T17:56:59Z</time>
      </trkpt>
      <trkpt lat="45.4525" lon="5.46658">
        <ele>626</ele>
        <time>2022-11-28T17:57:14Z</time>
      </trkpt>
      <trkpt lat="45.45246" lon="5.46659">
        <ele>626</ele>
        <time>2022-11-28T17:57:20Z</time>
      </trkpt>
      <trkpt lat="45.45236" lon="5.46654">
        <ele>627</ele>
        <time>2022-11-28T17:57:34Z</time>
      </trkpt>
      <trkpt lat="45.45209" lon="5.46623">
        <ele>629</ele>
        <time>2022-11-28T17:58:20Z</time>
      </trkpt>
      <trkpt lat="45.45202" lon="5.46622">
        <ele>628</ele>
        <time>2022-11-28T17:58:30Z</time>
      </trkpt>
      <trkpt lat="45.45198" lon="5.46614">
        <ele>629</ele>
        <time>2022-11-28T17:58:39Z</time>
      </trkpt>
      <trkpt lat="45.45191" lon="5.46631">
        <ele>628</ele>
        <time>2022-11-28T17:58:57Z</time>
      </trkpt>
      <trkpt lat="45.45187" lon="5.46633">
        <ele>627</ele>
        <time>2022-11-28T17:59:03Z</time>
      </trkpt>
      <trkpt lat="45.45185" lon="5.46642">
        <ele>627</ele>
        <time>2022-11-28T17:59:12Z</time>
      </trkpt>
      <trkpt lat="45.45168" lon="5.46651">
        <ele>627</ele>
        <time>2022-11-28T17:59:36Z</time>
      </trkpt>
      <trkpt lat="45.45162" lon="5.46651">
        <ele>627</ele>
        <time>2022-11-28T17:59:44Z</time>
      </trkpt>
      <trkpt lat="45.45159" lon="5.4666">
        <ele>627</ele>
        <time>2022-11-28T17:59:53Z</time>
      </trkpt>
      <trkpt lat="45.4515" lon="5.46658">
        <ele>626</ele>
        <time>2022-11-28T18:00:06Z</time>
      </trkpt>
      <trkpt lat="45.45151" lon="5.46662">
        <ele>626</ele>
        <time>2022-11-28T18:00:09Z</time>
      </trkpt>
      <trkpt lat="45.45149" lon="5.46665">
        <ele>626</ele>
        <time>2022-11-28T18:00:13Z</time>
      </trkpt>
      <trkpt lat="45.45144" lon="5.46664">
        <ele>626</ele>
        <time>2022-11-28T18:00:20Z</time>
      </trkpt>
      <trkpt lat="45.45124" lon="5.46669">
        <ele>626</ele>
        <time>2022-11-28T18:00:47Z</time>
      </trkpt>
      <trkpt lat="45.45118" lon="5.46676">
        <ele>627</ele>
        <time>2022-11-28T18:00:58Z</time>
      </trkpt>
      <trkpt lat="45.4511" lon="5.46678">
        <ele>628</ele>
        <time>2022-11-28T18:01:08Z</time>
      </trkpt>
      <trkpt lat="45.45104" lon="5.46687">
        <ele>630</ele>
        <time>2022-11-28T18:01:20Z</time>
      </trkpt>
      <trkpt lat="45.45099" lon="5.4669">
        <ele>631</ele>
        <time>2022-11-28T18:01:27Z</time>
      </trkpt>
      <trkpt lat="45.45096" lon="5.46702">
        <ele>634</ele>
        <time>2022-11-28T18:01:39Z</time>
      </trkpt>
      <trkpt lat="45.45088" lon="5.46712">
        <ele>636</ele>
        <time>2022-11-28T18:01:53Z</time>
      </trkpt>
      <trkpt lat="45.45082" lon="5.46714">
        <ele>637</ele>
        <time>2022-11-28T18:02:02Z</time>
      </trkpt>
      <trkpt lat="45.45077" lon="5.46719">
        <ele>639</ele>
        <time>2022-11-28T18:02:10Z</time>
      </trkpt>
      <trkpt lat="45.45071" lon="5.46719">
        <ele>639</ele>
        <time>2022-11-28T18:02:18Z</time>
      </trkpt>
      <trkpt lat="45.45059" lon="5.46726">
        <ele>642</ele>
        <time>2022-11-28T18:02:35Z</time>
      </trkpt>
      <trkpt lat="45.45053" lon="5.46727">
        <ele>642</ele>
        <time>2022-11-28T18:02:43Z</time>
      </trkpt>
      <trkpt lat="45.45054" lon="5.4673">
        <ele>643</ele>
        <time>2022-11-28T18:02:46Z</time>
      </trkpt>
      <trkpt lat="45.45051" lon="5.46735">
        <ele>644</ele>
        <time>2022-11-28T18:02:52Z</time>
      </trkpt>
      <trkpt lat="45.45049" lon="5.46733">
        <ele>644</ele>
        <time>2022-11-28T18:02:56Z</time>
      </trkpt>
      <trkpt lat="45.45031" lon="5.46732">
        <ele>645</ele>
        <time>2022-11-28T18:03:20Z</time>
      </trkpt>
      <trkpt lat="45.45025" lon="5.46728">
        <ele>644</ele>
        <time>2022-11-28T18:03:29Z</time>
      </trkpt>
      <trkpt lat="45.45019" lon="5.4673">
        <ele>645</ele>
        <time>2022-11-28T18:03:37Z</time>
      </trkpt>
      <trkpt lat="45.45001" lon="5.46728">
        <ele>646</ele>
        <time>2022-11-28T18:04:01Z</time>
      </trkpt>
      <trkpt lat="45.45001" lon="5.46731">
        <ele>646</ele>
        <time>2022-11-28T18:04:04Z</time>
      </trkpt>
      <trkpt lat="45.44994" lon="5.46732">
        <ele>647</ele>
        <time>2022-11-28T18:04:13Z</time>
      </trkpt>
      <trkpt lat="45.4498" lon="5.46726">
        <ele>649</ele>
        <time>2022-11-28T18:04:33Z</time>
      </trkpt>
      <trkpt lat="45.44979" lon="5.46723">
        <ele>649</ele>
        <time>2022-11-28T18:04:36Z</time>
      </trkpt>
      <trkpt lat="45.4496" lon="5.46712">
        <ele>651</ele>
        <time>2022-11-28T18:05:03Z</time>
      </trkpt>
      <trkpt lat="45.44956" lon="5.46706">
        <ele>650</ele>
        <time>2022-11-28T18:05:11Z</time>
      </trkpt>
      <trkpt lat="45.4494" lon="5.46697">
        <ele>651</ele>
        <time>2022-11-28T18:05:34Z</time>
      </trkpt>
      <trkpt lat="45.44919" lon="5.4668">
        <ele>651</ele>
        <time>2022-11-28T18:06:06Z</time>
      </trkpt>
      <trkpt lat="45.44916" lon="5.46683">
        <ele>653</ele>
        <time>2022-11-28T18:06:11Z</time>
      </trkpt>
      <trkpt lat="45.44909" lon="5.46684">
        <ele>654</ele>
        <time>2022-11-28T18:06:20Z</time>
      </trkpt>
      <trkpt lat="45.44897" lon="5.46678">
        <ele>655</ele>
        <time>2022-11-28T18:06:37Z</time>
      </trkpt>
      <trkpt lat="45.4487" lon="5.46688">
        <ele>662</ele>
        <time>2022-11-28T18:07:14Z</time>
      </trkpt>
      <trkpt lat="45.44867" lon="5.46686">
        <ele>662</ele>
        <time>2022-11-28T18:07:19Z</time>
      </trkpt>
      <trkpt lat="45.44842" lon="5.46684">
        <ele>666</ele>
        <time>2022-11-28T18:07:52Z</time>
      </trkpt>
      <trkpt lat="45.44834" lon="5.46688">
        <ele>668</ele>
        <time>2022-11-28T18:08:04Z</time>
      </trkpt>
      <trkpt lat="45.44823" lon="5.46687">
        <ele>669</ele>
        <time>2022-11-28T18:08:18Z</time>
      </trkpt>
      <trkpt lat="45.44823" lon="5.46691">
        <ele>670</ele>
        <time>2022-11-28T18:08:22Z</time>
      </trkpt>
      <trkpt lat="45.4481" lon="5.46691">
        <ele>671</ele>
        <time>2022-11-28T18:08:39Z</time>
      </trkpt>
      <trkpt lat="45.44809" lon="5.46695">
        <ele>672</ele>
        <time>2022-11-28T18:08:43Z</time>
      </trkpt>
      <trkpt lat="45.44805" lon="5.46693">
        <ele>671</ele>
        <time>2022-11-28T18:08:49Z</time>
      </trkpt>
      <trkpt lat="45.44808" lon="5.46696">
        <ele>672</ele>
        <time>2022-11-28T18:08:54Z</time>
      </trkpt>
      <trkpt lat="45.44793" lon="5.46695">
        <ele>673</ele>
        <time>2022-11-28T18:09:14Z</time>
      </trkpt>
      <trkpt lat="45.44779" lon="5.46688">
        <ele>672</ele>
        <time>2022-11-28T18:09:34Z</time>
      </trkpt>
      <trkpt lat="45.4477" lon="5.46685">
        <ele>671</ele>
        <time>2022-11-28T18:09:46Z</time>
      </trkpt>
      <trkpt lat="45.4477" lon="5.46687">
        <ele>672</ele>
        <time>2022-11-28T18:09:48Z</time>
      </trkpt>
      <trkpt lat="45.44763" lon="5.46681">
        <ele>671</ele>
        <time>2022-11-28T18:09:59Z</time>
      </trkpt>
      <trkpt lat="45.44759" lon="5.46682">
        <ele>671</ele>
        <time>2022-11-28T18:10:04Z</time>
      </trkpt>
      <trkpt lat="45.44738" lon="5.46677">
        <ele>671</ele>
        <time>2022-11-28T18:10:33Z</time>
      </trkpt>
      <trkpt lat="45.44738" lon="5.4668">
        <ele>672</ele>
        <time>2022-11-28T18:10:35Z</time>
      </trkpt>
      <trkpt lat="45.44729" lon="5.46685">
        <ele>674</ele>
        <time>2022-11-28T18:10:48Z</time>
      </trkpt>
      <trkpt lat="45.44717" lon="5.46679">
        <ele>673</ele>
        <time>2022-11-28T18:11:05Z</time>
      </trkpt>
      <trkpt lat="45.44698" lon="5.46675">
        <ele>674</ele>
        <time>2022-11-28T18:11:31Z</time>
      </trkpt>
      <trkpt lat="45.44684" lon="5.46669">
        <ele>673</ele>
        <time>2022-11-28T18:11:50Z</time>
      </trkpt>
      <trkpt lat="45.44682" lon="5.46679">
        <ele>676</ele>
        <time>2022-11-28T18:12:00Z</time>
      </trkpt>
      <trkpt lat="45.44652" lon="5.46671">
        <ele>677</ele>
        <time>2022-11-28T18:12:41Z</time>
      </trkpt>
      <trkpt lat="45.44651" lon="5.46673">
        <ele>678</ele>
        <time>2022-11-28T18:12:43Z</time>
      </trkpt>
      <trkpt lat="45.44655" lon="5.46678">
        <ele>679</ele>
        <time>2022-11-28T18:12:50Z</time>
      </trkpt>
      <trkpt lat="45.4465" lon="5.46679">
        <ele>680</ele>
        <time>2022-11-28T18:12:57Z</time>
      </trkpt>
      <trkpt lat="45.44626" lon="5.46674">
        <ele>681</ele>
        <time>2022-11-28T18:13:29Z</time>
      </trkpt>
      <trkpt lat="45.44613" lon="5.46678">
        <ele>684</ele>
        <time>2022-11-28T18:13:47Z</time>
      </trkpt>
      <trkpt lat="45.44619" lon="5.46678">
        <ele>683</ele>
        <time>2022-11-28T18:13:55Z</time>
      </trkpt>
      <trkpt lat="45.44615" lon="5.46672">
        <ele>682</ele>
        <time>2022-11-28T18:14:03Z</time>
      </trkpt>
      <trkpt lat="45.44602" lon="5.46671">
        <ele>684</ele>
        <time>2022-11-28T18:14:20Z</time>
      </trkpt>
      <trkpt lat="45.44607" lon="5.46671">
        <ele>683</ele>
        <time>2022-11-28T18:14:27Z</time>
      </trkpt>
      <trkpt lat="45.44603" lon="5.46671">
        <ele>684</ele>
        <time>2022-11-28T18:14:32Z</time>
      </trkpt>
      <trkpt lat="45.446" lon="5.46667">
        <ele>683</ele>
        <time>2022-11-28T18:14:38Z</time>
      </trkpt>
      <trkpt lat="45.44595" lon="5.46669">
        <ele>684</ele>
        <time>2022-11-28T18:14:45Z</time>
      </trkpt>
      <trkpt lat="45.44587" lon="5.46665">
        <ele>684</ele>
        <time>2022-11-28T18:14:56Z</time>
      </trkpt>
      <trkpt lat="45.44567" lon="5.46665">
        <ele>687</ele>
        <time>2022-11-28T18:15:23Z</time>
      </trkpt>
      <trkpt lat="45.44556" lon="5.46661">
        <ele>688</ele>
        <time>2022-11-28T18:15:38Z</time>
      </trkpt>
      <trkpt lat="45.44553" lon="5.46662">
        <ele>688</ele>
        <time>2022-11-28T18:15:42Z</time>
      </trkpt>
      <trkpt lat="45.44547" lon="5.46657">
        <ele>688</ele>
        <time>2022-11-28T18:15:51Z</time>
      </trkpt>
      <trkpt lat="45.44528" lon="5.46661">
        <ele>692</ele>
        <time>2022-11-28T18:16:17Z</time>
      </trkpt>
      <trkpt lat="45.44524" lon="5.46672">
        <ele>694</ele>
        <time>2022-11-28T18:16:29Z</time>
      </trkpt>
      <trkpt lat="45.4452" lon="5.46669">
        <ele>694</ele>
        <time>2022-11-28T18:16:35Z</time>
      </trkpt>
      <trkpt lat="45.44525" lon="5.46666">
        <ele>693</ele>
        <time>2022-11-28T18:16:42Z</time>
      </trkpt>
      <trkpt lat="45.44524" lon="5.46672">
        <ele>694</ele>
        <time>2022-11-28T18:16:48Z</time>
      </trkpt>
      <trkpt lat="45.4452" lon="5.46669">
        <ele>694</ele>
        <time>2022-11-28T18:16:54Z</time>
      </trkpt>
      <trkpt lat="45.44513" lon="5.46673">
        <ele>696</ele>
        <time>2022-11-28T18:17:04Z</time>
      </trkpt>
      <trkpt lat="45.44512" lon="5.46668">
        <ele>695</ele>
        <time>2022-11-28T18:17:09Z</time>
      </trkpt>
      <trkpt lat="45.44508" lon="5.46666">
        <ele>696</ele>
        <time>2022-11-28T18:17:14Z</time>
      </trkpt>
      <trkpt lat="45.4451" lon="5.46664">
        <ele>695</ele>
        <time>2022-11-28T18:17:17Z</time>
      </trkpt>
      <trkpt lat="45.44507" lon="5.46654">
        <ele>694</ele>
        <time>2022-11-28T18:17:28Z</time>
      </trkpt>
      <trkpt lat="45.44496" lon="5.46641">
        <ele>694</ele>
        <time>2022-11-28T18:17:47Z</time>
      </trkpt>
      <trkpt lat="45.44486" lon="5.46639">
        <ele>695</ele>
        <time>2022-11-28T18:18:00Z</time>
      </trkpt>
      <trkpt lat="45.44475" lon="5.46631">
        <ele>695</ele>
        <time>2022-11-28T18:18:17Z</time>
      </trkpt>
      <trkpt lat="45.44457" lon="5.46626">
        <ele>697</ele>
        <time>2022-11-28T18:18:41Z</time>
      </trkpt>
      <trkpt lat="45.44444" lon="5.46617">
        <ele>698</ele>
        <time>2022-11-28T18:19:00Z</time>
      </trkpt>
      <trkpt lat="45.44434" lon="5.4662">
        <ele>699</ele>
        <time>2022-11-28T18:19:14Z</time>
      </trkpt>
      <trkpt lat="45.44409" lon="5.46609">
        <ele>703</ele>
        <time>2022-11-28T18:19:49Z</time>
      </trkpt>
      <trkpt lat="45.44404" lon="5.46609">
        <ele>704</ele>
        <time>2022-11-28T18:19:56Z</time>
      </trkpt>
      <trkpt lat="45.44388" lon="5.46595">
        <ele>706</ele>
        <time>2022-11-28T18:20:21Z</time>
      </trkpt>
      <trkpt lat="45.44387" lon="5.46591">
        <ele>706</ele>
        <time>2022-11-28T18:20:25Z</time>
      </trkpt>
      <trkpt lat="45.44383" lon="5.46591">
        <ele>707</ele>
        <time>2022-11-28T18:20:30Z</time>
      </trkpt>
      <trkpt lat="45.44371" lon="5.46579">
        <ele>708</ele>
        <time>2022-11-28T18:20:50Z</time>
      </trkpt>
      <trkpt lat="45.44367" lon="5.46579">
        <ele>709</ele>
        <time>2022-11-28T18:20:55Z</time>
      </trkpt>
      <trkpt lat="45.4436" lon="5.4657">
        <ele>709</ele>
        <time>2022-11-28T18:21:07Z</time>
      </trkpt>
      <trkpt lat="45.44353" lon="5.46569">
        <ele>710</ele>
        <time>2022-11-28T18:21:17Z</time>
      </trkpt>
      <trkpt lat="45.44336" lon="5.46553">
        <ele>711</ele>
        <time>2022-11-28T18:21:44Z</time>
      </trkpt>
      <trkpt lat="45.44312" lon="5.46548">
        <ele>711</ele>
        <time>2022-11-28T18:22:16Z</time>
      </trkpt>
      <trkpt lat="45.44287" lon="5.46547">
        <ele>711</ele>
        <time>2022-11-28T18:22:50Z</time>
      </trkpt>
      <trkpt lat="45.44241" lon="5.46607">
        <ele>718</ele>
        <time>2022-11-28T18:24:13Z</time>
      </trkpt>
      <trkpt lat="45.44183" lon="5.46604">
        <ele>723</ele>
        <time>2022-11-28T18:25:30Z</time>
      </trkpt>
      <trkpt lat="45.44108" lon="5.4659">
        <ele>729</ele>
        <time>2022-11-28T18:27:11Z</time>
      </trkpt>
      <trkpt lat="45.44207" lon="5.46622">
        <ele>720</ele>
        <time>2022-11-28T18:29:27Z</time>
      </trkpt>
      <trkpt lat="45.44265" lon="5.4662">
        <ele>716</ele>
        <time>2022-11-28T18:30:44Z</time>
      </trkpt>
      <trkpt lat="45.44304" lon="5.46569">
        <ele>713</ele>
        <time>2022-11-28T18:31:55Z</time>
      </trkpt>
      <trkpt lat="45.44512" lon="5.46682">
        <ele>697</ele>
        <time>2022-11-28T18:36:52Z</time>
      </trkpt>
      <trkpt lat="45.44388" lon="5.46766">
        <ele>695</ele>
        <time>2022-11-28T18:39:55Z</time>
      </trkpt>
      <trkpt lat="45.44347" lon="5.46858">
        <ele>690</ele>
        <time>2022-11-28T18:41:37Z</time>
      </trkpt>
      <trkpt lat="45.44268" lon="5.46957">
        <ele>682</ele>
        <time>2022-11-28T18:43:58Z</time>
      </trkpt>
      <trkpt lat="45.4425" lon="5.4697">
        <ele>679</ele>
        <time>2022-11-28T18:44:25Z</time>
      </trkpt>
      <trkpt lat="45.44223" lon="5.4697">
        <ele>676</ele>
        <time>2022-11-28T18:45:01Z</time>
      </trkpt>
      <trkpt lat="45.44188" lon="5.46982">
        <ele>671</ele>
        <time>2022-11-28T18:45:49Z</time>
      </trkpt>
      <trkpt lat="45.44069" lon="5.4704">
        <ele>660</ele>
        <time>2022-11-28T18:48:36Z</time>
      </trkpt>
      <trkpt lat="45.43943" lon="5.47062">
        <ele>643</ele>
        <time>2022-11-28T18:51:26Z</time>
      </trkpt>
      <trkpt lat="45.43857" lon="5.47109">
        <ele>630</ele>
        <time>2022-11-28T18:53:29Z</time>
      </trkpt>
      <trkpt lat="45.4382" lon="5.47137">
        <ele>624</ele>
        <time>2022-11-28T18:54:25Z</time>
      </trkpt>
      <trkpt lat="45.43757" lon="5.47146">
        <ele>624</ele>
        <time>2022-11-28T18:55:49Z</time>
      </trkpt>
      <trkpt lat="45.43808" lon="5.47277">
        <ele>636</ele>
        <time>2022-11-28T18:58:09Z</time>
      </trkpt>
      <trkpt lat="45.43879" lon="5.47423">
        <ele>638</ele>
        <time>2022-11-28T19:00:56Z</time>
      </trkpt>
      <trkpt lat="45.44037" lon="5.47571">
        <ele>635</ele>
        <time>2022-11-28T19:05:08Z</time>
      </trkpt>
      <trkpt lat="45.43994" lon="5.4769">
        <ele>613</ele>
        <time>2022-11-28T19:07:13Z</time>
      </trkpt>
      <trkpt lat="45.43983" lon="5.47696">
        <ele>612</ele>
        <time>2022-11-28T19:07:29Z</time>
      </trkpt>
      <trkpt lat="45.4399" lon="5.47699">
        <ele>612</ele>
        <time>2022-11-28T19:07:39Z</time>
      </trkpt>
      <trkpt lat="45.43999" lon="5.47696">
        <ele>613</ele>
        <time>2022-11-28T19:07:51Z</time>
      </trkpt>
      <trkpt lat="45.4401" lon="5.47698">
        <ele>615</ele>
        <time>2022-11-28T19:08:06Z</time>
      </trkpt>
      <trkpt lat="45.44019" lon="5.47694">
        <ele>617</ele>
        <time>2022-11-28T19:08:19Z</time>
      </trkpt>
      <trkpt lat="45.44026" lon="5.47695">
        <ele>617</ele>
        <time>2022-11-28T19:08:28Z</time>
      </trkpt>
      <trkpt lat="45.44051" lon="5.47681">
        <ele>622</ele>
        <time>2022-11-28T19:09:04Z</time>
      </trkpt>
      <trkpt lat="45.44063" lon="5.47686">
        <ele>624</ele>
        <time>2022-11-28T19:09:20Z</time>
      </trkpt>
      <trkpt lat="45.4407" lon="5.47693">
        <ele>624</ele>
        <time>2022-11-28T19:09:32Z</time>
      </trkpt>
      <trkpt lat="45.44095" lon="5.47703">
        <ele>626</ele>
        <time>2022-11-28T19:10:07Z</time>
      </trkpt>
      <trkpt lat="45.44106" lon="5.47712">
        <ele>627</ele>
        <time>2022-11-28T19:10:23Z</time>
      </trkpt>
      <trkpt lat="45.44113" lon="5.47719">
        <ele>627</ele>
        <time>2022-11-28T19:10:35Z</time>
      </trkpt>
      <trkpt lat="45.44113" lon="5.47731">
        <ele>626</ele>
        <time>2022-11-28T19:10:46Z</time>
      </trkpt>
      <trkpt lat="45.44118" lon="5.47738">
        <ele>626</ele>
        <time>2022-11-28T19:10:55Z</time>
      </trkpt>
      <trkpt lat="45.44126" lon="5.47777">
        <ele>624</ele>
        <time>2022-11-28T19:11:34Z</time>
      </trkpt>
      <trkpt lat="45.44142" lon="5.47797">
        <ele>624</ele>
        <time>2022-11-28T19:12:02Z</time>
      </trkpt>
      <trkpt lat="45.44146" lon="5.47798">
        <ele>624</ele>
        <time>2022-11-28T19:12:07Z</time>
      </trkpt>
      <trkpt lat="45.44164" lon="5.47814">
        <ele>624</ele>
        <time>2022-11-28T19:12:36Z</time>
      </trkpt>
      <trkpt lat="45.44167" lon="5.47814">
        <ele>625</ele>
        <time>2022-11-28T19:12:40Z</time>
      </trkpt>
      <trkpt lat="45.44174" lon="5.47838">
        <ele>623</ele>
        <time>2022-11-28T19:13:04Z</time>
      </trkpt>
      <trkpt lat="45.44181" lon="5.47841">
        <ele>624</ele>
        <time>2022-11-28T19:13:14Z</time>
      </trkpt>
      <trkpt lat="45.44184" lon="5.47847">
        <ele>624</ele>
        <time>2022-11-28T19:13:21Z</time>
      </trkpt>
      <trkpt lat="45.44198" lon="5.47855">
        <ele>624</ele>
        <time>2022-11-28T19:13:41Z</time>
      </trkpt>
      <trkpt lat="45.44209" lon="5.47856">
        <ele>626</ele>
        <time>2022-11-28T19:13:55Z</time>
      </trkpt>
      <trkpt lat="45.44223" lon="5.47874">
        <ele>625</ele>
        <time>2022-11-28T19:14:21Z</time>
      </trkpt>
      <trkpt lat="45.44235" lon="5.47882">
        <ele>626</ele>
        <time>2022-11-28T19:14:38Z</time>
      </trkpt>
      <trkpt lat="45.44254" lon="5.47901">
        <ele>625</ele>
        <time>2022-11-28T19:15:09Z</time>
      </trkpt>
      <trkpt lat="45.44264" lon="5.47904">
        <ele>625</ele>
        <time>2022-11-28T19:15:23Z</time>
      </trkpt>
      <trkpt lat="45.44276" lon="5.47915">
        <ele>624</ele>
        <time>2022-11-28T19:15:42Z</time>
      </trkpt>
      <trkpt lat="45.44284" lon="5.47917">
        <ele>624</ele>
        <time>2022-11-28T19:15:53Z</time>
      </trkpt>
      <trkpt lat="45.44291" lon="5.47924">
        <ele>622</ele>
        <time>2022-11-28T19:16:04Z</time>
      </trkpt>
      <trkpt lat="45.44314" lon="5.47936">
        <ele>621</ele>
        <time>2022-11-28T19:16:37Z</time>
      </trkpt>
      <trkpt lat="45.44336" lon="5.47954">
        <ele>618</ele>
        <time>2022-11-28T19:17:11Z</time>
      </trkpt>
      <trkpt lat="45.4434" lon="5.47954">
        <ele>619</ele>
        <time>2022-11-28T19:17:16Z</time>
      </trkpt>
      <trkpt lat="45.44351" lon="5.47971">
        <ele>618</ele>
        <time>2022-11-28T19:17:38Z</time>
      </trkpt>
      <trkpt lat="45.44359" lon="5.47977">
        <ele>618</ele>
        <time>2022-11-28T19:17:50Z</time>
      </trkpt>
      <trkpt lat="45.4437" lon="5.47994">
        <ele>618</ele>
        <time>2022-11-28T19:18:11Z</time>
      </trkpt>
      <trkpt lat="45.44355" lon="5.47975">
        <ele>618</ele>
        <time>2022-11-28T19:18:38Z</time>
      </trkpt>
      <trkpt lat="45.44359" lon="5.47977">
        <ele>618</ele>
        <time>2022-11-28T19:18:44Z</time>
      </trkpt>
      <trkpt lat="45.44381" lon="5.4801">
        <ele>618</ele>
        <time>2022-11-28T19:19:27Z</time>
      </trkpt>
      <trkpt lat="45.44386" lon="5.48028">
        <ele>616</ele>
        <time>2022-11-28T19:19:45Z</time>
      </trkpt>
      <trkpt lat="45.44411" lon="5.48073">
        <ele>615</ele>
        <time>2022-11-28T19:20:38Z</time>
      </trkpt>
      <trkpt lat="45.44415" lon="5.48085">
        <ele>614</ele>
        <time>2022-11-28T19:20:51Z</time>
      </trkpt>
      <trkpt lat="45.44437" lon="5.48114">
        <ele>611</ele>
        <time>2022-11-28T19:21:31Z</time>
      </trkpt>
      <trkpt lat="45.44441" lon="5.48125">
        <ele>609</ele>
        <time>2022-11-28T19:21:42Z</time>
      </trkpt>
      <trkpt lat="45.44448" lon="5.48132">
        <ele>609</ele>
        <time>2022-11-28T19:21:54Z</time>
      </trkpt>
      <trkpt lat="45.4445" lon="5.48147">
        <ele>605</ele>
        <time>2022-11-28T19:22:08Z</time>
      </trkpt>
      <trkpt lat="45.44455" lon="5.4815">
        <ele>605</ele>
        <time>2022-11-28T19:22:15Z</time>
      </trkpt>
      <trkpt lat="45.44465" lon="5.48173">
        <ele>602</ele>
        <time>2022-11-28T19:22:41Z</time>
      </trkpt>
      <trkpt lat="45.44473" lon="5.48167">
        <ele>603</ele>
        <time>2022-11-28T19:22:53Z</time>
      </trkpt>
      <trkpt lat="45.44497" lon="5.48167">
        <ele>606</ele>
        <time>2022-11-28T19:23:25Z</time>
      </trkpt>
      <trkpt lat="45.44502" lon="5.48169">
        <ele>606</ele>
        <time>2022-11-28T19:23:32Z</time>
      </trkpt>
      <trkpt lat="45.44523" lon="5.4816">
        <ele>609</ele>
        <time>2022-11-28T19:24:01Z</time>
      </trkpt>
      <trkpt lat="45.44531" lon="5.4816">
        <ele>609</ele>
        <time>2022-11-28T19:24:12Z</time>
      </trkpt>
      <trkpt lat="45.44548" lon="5.48155">
        <ele>611</ele>
        <time>2022-11-28T19:24:35Z</time>
      </trkpt>
      <trkpt lat="45.44562" lon="5.48159">
        <ele>611</ele>
        <time>2022-11-28T19:24:54Z</time>
      </trkpt>
      <trkpt lat="45.4458" lon="5.4817">
        <ele>611</ele>
        <time>2022-11-28T19:25:20Z</time>
      </trkpt>
      <trkpt lat="45.446" lon="5.48187">
        <ele>613</ele>
        <time>2022-11-28T19:25:51Z</time>
      </trkpt>
      <trkpt lat="45.44604" lon="5.48194">
        <ele>614</ele>
        <time>2022-11-28T19:26:00Z</time>
      </trkpt>
      <trkpt lat="45.44615" lon="5.482">
        <ele>616</ele>
        <time>2022-11-28T19:26:15Z</time>
      </trkpt>
      <trkpt lat="45.44626" lon="5.48198">
        <ele>617</ele>
        <time>2022-11-28T19:26:30Z</time>
      </trkpt>
      <trkpt lat="45.44631" lon="5.48202">
        <ele>618</ele>
        <time>2022-11-28T19:26:38Z</time>
      </trkpt>
      <trkpt lat="45.44638" lon="5.482">
        <ele>619</ele>
        <time>2022-11-28T19:26:47Z</time>
      </trkpt>
      <trkpt lat="45.44636" lon="5.48204">
        <ele>619</ele>
        <time>2022-11-28T19:26:52Z</time>
      </trkpt>
      <trkpt lat="45.44637" lon="5.48197">
        <ele>619</ele>
        <time>2022-11-28T19:26:59Z</time>
      </trkpt>
      <trkpt lat="45.44647" lon="5.48199">
        <ele>621</ele>
        <time>2022-11-28T19:27:12Z</time>
      </trkpt>
      <trkpt lat="45.44657" lon="5.48196">
        <ele>622</ele>
        <time>2022-11-28T19:27:26Z</time>
      </trkpt>
      <trkpt lat="45.44663" lon="5.48191">
        <ele>623</ele>
        <time>2022-11-28T19:27:35Z</time>
      </trkpt>
      <trkpt lat="45.44664" lon="5.48188">
        <ele>623</ele>
        <time>2022-11-28T19:27:38Z</time>
      </trkpt>
      <trkpt lat="45.44662" lon="5.48186">
        <ele>623</ele>
        <time>2022-11-28T19:27:41Z</time>
      </trkpt>
      <trkpt lat="45.44789" lon="5.48184">
        <ele>644</ele>
        <time>2022-11-28T19:30:31Z</time>
      </trkpt>
      <trkpt lat="45.45011" lon="5.48199">
        <ele>684</ele>
        <time>2022-11-28T19:35:27Z</time>
      </trkpt>
      <trkpt lat="45.4504" lon="5.48195">
        <ele>686</ele>
        <time>2022-11-28T19:36:06Z</time>
      </trkpt>
      <trkpt lat="45.45082" lon="5.48201">
        <ele>687</ele>
        <time>2022-11-28T19:37:03Z</time>
      </trkpt>
      <trkpt lat="45.45125" lon="5.48259">
        <ele>682</ele>
        <time>2022-11-28T19:38:22Z</time>
      </trkpt>
      <trkpt lat="45.45197" lon="5.48257">
        <ele>687</ele>
        <time>2022-11-28T19:39:58Z</time>
      </trkpt>
      <trkpt lat="45.4526" lon="5.48276">
        <ele>695</ele>
        <time>2022-11-28T19:41:24Z</time>
      </trkpt>
      <trkpt lat="45.45288" lon="5.48273">
        <ele>698</ele>
        <time>2022-11-28T19:42:01Z</time>
      </trkpt>
      <trkpt lat="45.45324" lon="5.48259">
        <ele>700</ele>
        <time>2022-11-28T19:42:51Z</time>
      </trkpt>
      <trkpt lat="45.45379" lon="5.48221">
        <ele>703</ele>
        <time>2022-11-28T19:44:12Z</time>
      </trkpt>
      <trkpt lat="45.45429" lon="5.48156">
        <ele>705</ele>
        <time>2022-11-28T19:45:43Z</time>
      </trkpt>
      <trkpt lat="45.45475" lon="5.48091">
        <ele>705</ele>
        <time>2022-11-28T19:47:09Z</time>
      </trkpt>
      <trkpt lat="45.45533" lon="5.4802">
        <ele>710</ele>
        <time>2022-11-28T19:48:51Z</time>
      </trkpt>
      <trkpt lat="45.45582" lon="5.47973">
        <ele>709</ele>
        <time>2022-11-28T19:50:10Z</time>
      </trkpt>
      <trkpt lat="45.45641" lon="5.47947">
        <ele>711</ele>
        <time>2022-11-28T19:51:32Z</time>
      </trkpt>
      <trkpt lat="45.45684" lon="5.47957">
        <ele>713</ele>
        <time>2022-11-28T19:52:31Z</time>
      </trkpt>
      <trkpt lat="45.45728" lon="5.4795">
        <ele>715</ele>
        <time>2022-11-28T19:53:30Z</time>
      </trkpt>
      <trkpt lat="45.45747" lon="5.47954">
        <ele>716</ele>
        <time>2022-11-28T19:53:55Z</time>
      </trkpt>
      <trkpt lat="45.45771" lon="5.47943">
        <ele>719</ele>
        <time>2022-11-28T19:54:29Z</time>
      </trkpt>
      <trkpt lat="45.45787" lon="5.47957">
        <ele>720</ele>
        <time>2022-11-28T19:54:54Z</time>
      </trkpt>
      <trkpt lat="45.45816" lon="5.4795">
        <ele>723</ele>
        <time>2022-11-28T19:55:33Z</time>
      </trkpt>
      <trkpt lat="45.45832" lon="5.4794">
        <ele>724</ele>
        <time>2022-11-28T19:55:56Z</time>
      </trkpt>
      <trkpt lat="45.45886" lon="5.47917">
        <ele>716</ele>
        <time>2022-11-28T19:57:12Z</time>
      </trkpt>
      <trkpt lat="45.45973" lon="5.47941">
        <ele>709</ele>
        <time>2022-11-28T19:59:10Z</time>
      </trkpt>
      <trkpt lat="45.46002" lon="5.47971">
        <ele>709</ele>
        <time>2022-11-28T19:59:58Z</time>
      </trkpt>
      <trkpt lat="45.46027" lon="5.47964">
        <ele>707</ele>
        <time>2022-11-28T20:00:32Z</time>
      </trkpt>
      <trkpt lat="45.4604" lon="5.47967">
        <ele>706</ele>
        <time>2022-11-28T20:00:49Z</time>
      </trkpt>
      <trkpt lat="45.46126" lon="5.48007">
        <ele>700</ele>
        <time>2022-11-28T20:02:50Z</time>
      </trkpt>
      <trkpt lat="45.46195" lon="5.48049">
        <ele>690</ele>
        <time>2022-11-28T20:04:30Z</time>
      </trkpt>
      <trkpt lat="45.46232" lon="5.4809">
        <ele>685</ele>
        <time>2022-11-28T20:05:33Z</time>
      </trkpt>
      <trkpt lat="45.46268" lon="5.48138">
        <ele>682</ele>
        <time>2022-11-28T20:06:38Z</time>
      </trkpt>
      <trkpt lat="45.46336" lon="5.48174">
        <ele>677</ele>
        <time>2022-11-28T20:08:15Z</time>
      </trkpt>
      <trkpt lat="45.46433" lon="5.48215">
        <ele>672</ele>
        <time>2022-11-28T20:10:30Z</time>
      </trkpt>
      <trkpt lat="45.46452" lon="5.48202">
        <ele>668</ele>
        <time>2022-11-28T20:10:58Z</time>
      </trkpt>
      <trkpt lat="45.46561" lon="5.48276">
        <ele>655</ele>
        <time>2022-11-28T20:13:40Z</time>
      </trkpt>
      <trkpt lat="45.4674" lon="5.48342">
        <ele>648</ele>
        <time>2022-11-28T20:17:46Z</time>
      </trkpt>
      <trkpt lat="45.46774" lon="5.48301">
        <ele>646</ele>
        <time>2022-11-28T20:18:46Z</time>
      </trkpt>
      <trkpt lat="45.46839" lon="5.4835">
        <ele>645</ele>
        <time>2022-11-28T20:20:24Z</time>
      </trkpt>
      <trkpt lat="45.46962" lon="5.48503">
        <ele>644</ele>
        <time>2022-11-28T20:24:02Z</time>
      </trkpt>
      <trkpt lat="45.47081" lon="5.48562">
        <ele>633</ele>
        <time>2022-11-28T20:26:50Z</time>
      </trkpt>
      <trkpt lat="45.47209" lon="5.48598">
        <ele>623</ele>
        <time>2022-11-28T20:29:44Z</time>
      </trkpt>
      <trkpt lat="45.47329" lon="5.48544">
        <ele>606</ele>
        <time>2022-11-28T20:32:32Z</time>
      </trkpt>
      <trkpt lat="45.47487" lon="5.48483">
        <ele>588</ele>
        <time>2022-11-28T20:36:10Z</time>
      </trkpt>
      <trkpt lat="45.4751" lon="5.48603">
        <ele>594</ele>
        <time>2022-11-28T20:38:07Z</time>
      </trkpt>
      <trkpt lat="45.47496" lon="5.48612">
        <ele>596</ele>
        <time>2022-11-28T20:38:27Z</time>
      </trkpt>
      <trkpt lat="45.47643" lon="5.48559">
        <ele>579</ele>
        <time>2022-11-28T20:41:49Z</time>
      </trkpt>
      <trkpt lat="45.47743" lon="5.48399">
        <ele>567</ele>
        <time>2022-11-28T20:45:10Z</time>
      </trkpt>
      <trkpt lat="45.47836" lon="5.48386">
        <ele>560</ele>
        <time>2022-11-28T20:47:15Z</time>
      </trkpt>
      <trkpt lat="45.47925" lon="5.48288">
        <ele>548</ele>
        <time>2022-11-28T20:49:45Z</time>
      </trkpt>
      <trkpt lat="45.47968" lon="5.48213">
        <ele>536</ele>
        <time>2022-11-28T20:51:15Z</time>
      </trkpt>
      <trkpt lat="45.47977" lon="5.48125">
        <ele>532</ele>
        <time>2022-11-28T20:52:39Z</time>
      </trkpt>
      <trkpt lat="45.47971" lon="5.48051">
        <ele>528</ele>
        <time>2022-11-28T20:53:48Z</time>
      </trkpt>
      <trkpt lat="45.47877" lon="5.47937">
        <ele>528</ele>
        <time>2022-11-28T20:56:33Z</time>
      </trkpt>
      <trkpt lat="45.47869" lon="5.47818">
        <ele>505</ele>
        <time>2022-11-28T20:58:25Z</time>
      </trkpt>
      <trkpt lat="45.47877" lon="5.47937">
        <ele>528</ele>
        <time>2022-11-28T21:00:17Z</time>
      </trkpt>
      <trkpt lat="45.47869" lon="5.47818">
        <ele>505</ele>
        <time>2022-11-28T21:02:09Z</time>
      </trkpt>
      <trkpt lat="45.47958" lon="5.47737">
        <ele>498</ele>
        <time>2022-11-28T21:04:29Z</time>
      </trkpt>
      <trkpt lat="45.48087" lon="5.47597">
        <ele>457</ele>
        <time>2022-11-28T21:08:06Z</time>
      </trkpt>
      <trkpt lat="45.48193" lon="5.47665">
        <ele>438</ele>
        <time>2022-11-28T21:10:41Z</time>
      </trkpt>
      <trkpt lat="45.4834" lon="5.47557">
        <ele>420</ele>
        <time>2022-11-28T21:14:21Z</time>
      </trkpt>
      <trkpt lat="45.4846" lon="5.47481">
        <ele>411</ele>
        <time>2022-11-28T21:17:17Z</time>
      </trkpt>
      <trkpt lat="45.48579" lon="5.47343">
        <ele>395</ele>
        <time>2022-11-28T21:20:41Z</time>
      </trkpt>
      <trkpt lat="45.48553" lon="5.47254">
        <ele>393</ele>
        <time>2022-11-28T21:22:12Z</time>
      </trkpt>
    </trkseg>
  </trk>
</gpx>